Mexico V — XCKR — position and weather

sailwx.info

Track history (hours):
 
Tides and Currents Weather Stations Pressure Air Temp Water Temp Dewpoint Dewpoint Depression Visibility Wind Speed Wind Dir Waves Ship Positions

Mexico V

Last reported at 2014-Oct-19 00:33 UTC. Time now 2014-Dec-21 11:26 UTC.
Position N 20°31' W 086°57'.
Warning: this ship's position is months out of date.

Length 40 m; draft 1.5 m.

Type: Ship. MMSI: 345110005.

Date/timePositionNaut miles runAvg speedWind from/ knotsBaromVisibWave heightAir tempDewpointWater temp
2014-Oct-19 00:33N 20°31' W 086°57'0 0.1
2014-Oct-18 23:33N 20°30' W 086°57'0 0.0
2014-Oct-18 22:33N 20°30' W 086°57'0 0.0
2014-Oct-18 21:33N 20°30' W 086°57'0 0.0
2014-Oct-18 20:33N 20°30' W 086°57'0 0.0
2014-Oct-18 19:33N 20°30' W 086°57'0 0.0
2014-Oct-18 18:33N 20°30' W 086°57'0 0.0
2014-Oct-18 17:33N 20°30' W 086°57'0 0.0
2014-Oct-18 16:33N 20°30' W 086°57'0 0.0
2014-Oct-18 15:33N 20°30' W 086°57'  
2014-Oct-16 01:33N 20°31' W 086°57'3 2.9
2014-Oct-16 00:33N 20°33' W 086°59'1 0.7
2014-Oct-15 23:21N 20°32' W 086°59'2 2.6
2014-Oct-15 22:26N 20°31' W 086°57'0 0.0
2014-Oct-15 21:33N 20°31' W 086°57'0 0.0
2014-Oct-15 20:33N 20°31' W 086°57'0 0.0
2014-Oct-15 19:33N 20°31' W 086°57'2 0.7
2014-Oct-15 17:14N 20°32' W 086°58'1 0.7
2014-Oct-15 15:15N 20°33' W 086°59'3 3.9
2014-Oct-15 14:31N 20°31' W 086°57'3 0.2
2014-Oct-15 01:34N 20°33' W 086°59'0 0.2
2014-Oct-15 00:17N 20°33' W 086°59'3 3.6
2014-Oct-14 23:33N 20°31' W 086°57'0 0.4
2014-Oct-14 22:33N 20°30' W 086°57'1 0.2
2014-Oct-14 15:14N 20°32' W 086°58'1 2.2
2014-Oct-14 14:33N 20°30' W 086°57'0 0.0
2014-Oct-14 13:33N 20°30' W 086°57'2 1.8
2014-Oct-14 12:33N 20°32' W 086°58'1 0.5
2014-Oct-14 11:16N 20°32' W 086°59'2 3.4
2014-Oct-14 10:33N 20°31' W 086°57'0 0.0
2014-Oct-14 01:14N 20°31' W 086°57'2 2.3
2014-Oct-14 00:34N 20°32' W 086°58'0 0.2
2014-Oct-13 23:14N 20°32' W 086°58'1 0.3
2014-Oct-13 21:15N 20°33' W 086°59'2 3.4
2014-Oct-13 20:33N 20°31' W 086°57'0 0.0
2014-Oct-13 19:33N 20°31' W 086°57'0 0.1
2014-Oct-13 13:34N 20°30' W 086°57'0 0.0
2014-Oct-13 12:33N 20°30' W 086°57'0 0.3
2014-Oct-13 11:34N 20°31' W 086°57'2 0.2
2014-Oct-13 00:17N 20°32' W 086°58'2 1.7
2014-Oct-12 23:15N 20°31' W 086°57'0 0.1
2014-Oct-12 22:34N 20°31' W 086°57'0 0.0
2014-Oct-12 21:31N 20°31' W 086°57'0 0.0
2014-Oct-12 20:31N 20°31' W 086°57'0 0.0
2014-Oct-12 19:33N 20°31' W 086°57'0 0.0
2014-Oct-12 18:33N 20°31' W 086°57'0 0.0
2014-Oct-12 17:33N 20°31' W 086°57'0 0.0
2014-Oct-12 16:32N 20°31' W 086°57'0 0.0
2014-Oct-12 15:33N 20°31' W 086°57'0 0.0
2014-Oct-12 14:33N 20°31' W 086°57'0 0.0
2014-Oct-12 13:33N 20°31' W 086°57'0 0.0
2014-Oct-12 12:33N 20°31' W 086°57'2 0.2
2014-Oct-12 02:18N 20°32' W 086°59'2 2.3
2014-Oct-12 01:23N 20°31' W 086°57'0 0.0
2014-Oct-12 00:33N 20°31' W 086°57'0 0.0
2014-Oct-11 23:33N 20°31' W 086°57'0 0.0
2014-Oct-11 22:32N 20°31' W 086°57'0 0.0
2014-Oct-11 21:33N 20°31' W 086°57'0 0.0
2014-Oct-11 20:33N 20°31' W 086°57'0 0.0
2014-Oct-11 19:32N 20°31' W 086°57'1 0.6
2014-Oct-11 17:16N 20°32' W 086°58'1 0.0
2014-Oct-09 14:33N 20°31' W 086°57'1 0.6
2014-Oct-09 12:15N 20°32' W 086°58'1 2.0
2014-Oct-09 11:33N 20°31' W 086°57'  
Track history (hours):
 
Tides and Currents Weather Stations Pressure Air Temp Water Temp Dewpoint Dewpoint Depression Visibility Wind Speed Wind Dir Waves Ship Positions

Mexico V

Last reported at 2014-Oct-19 00:33 UTC. Time now 2014-Dec-21 11:26 UTC.
Position N 20°31' W 086°57'.
Warning: this ship's position is months out of date.

Length 40 m; draft 1.5 m.

Type: Ship. MMSI: 345110005.

Date/timePositionNaut miles runAvg speedWind from/ knotsBaromVisibWave heightAir tempDewpointWater temp
2014-Oct-19 00:33N 20°31' W 086°57'0 0.1
2014-Oct-18 23:33N 20°30' W 086°57'0 0.0
2014-Oct-18 22:33N 20°30' W 086°57'0 0.0
2014-Oct-18 21:33N 20°30' W 086°57'0 0.0
2014-Oct-18 20:33N 20°30' W 086°57'0 0.0
2014-Oct-18 19:33N 20°30' W 086°57'0 0.0
2014-Oct-18 18:33N 20°30' W 086°57'0 0.0
2014-Oct-18 17:33N 20°30' W 086°57'0 0.0
2014-Oct-18 16:33N 20°30' W 086°57'0 0.0
2014-Oct-18 15:33N 20°30' W 086°57'  
2014-Oct-16 01:33N 20°31' W 086°57'3 2.9
2014-Oct-16 00:33N 20°33' W 086°59'1 0.7
2014-Oct-15 23:21N 20°32' W 086°59'2 2.6
2014-Oct-15 22:26N 20°31' W 086°57'0 0.0
2014-Oct-15 21:33N 20°31' W 086°57'0 0.0
2014-Oct-15 20:33N 20°31' W 086°57'0 0.0
2014-Oct-15 19:33N 20°31' W 086°57'2 0.7
2014-Oct-15 17:14N 20°32' W 086°58'1 0.7
2014-Oct-15 15:15N 20°33' W 086°59'3 3.9
2014-Oct-15 14:31N 20°31' W 086°57'3 0.2
2014-Oct-15 01:34N 20°33' W 086°59'0 0.2
2014-Oct-15 00:17N 20°33' W 086°59'3 3.6
2014-Oct-14 23:33N 20°31' W 086°57'0 0.4
2014-Oct-14 22:33N 20°30' W 086°57'1 0.2
2014-Oct-14 15:14N 20°32' W 086°58'1 2.2
2014-Oct-14 14:33N 20°30' W 086°57'0 0.0
2014-Oct-14 13:33N 20°30' W 086°57'2 1.8
2014-Oct-14 12:33N 20°32' W 086°58'1 0.5
2014-Oct-14 11:16N 20°32' W 086°59'2 3.4
2014-Oct-14 10:33N 20°31' W 086°57'0 0.0
2014-Oct-14 01:14N 20°31' W 086°57'2 2.3
2014-Oct-14 00:34N 20°32' W 086°58'0 0.2
2014-Oct-13 23:14N 20°32' W 086°58'1 0.3
2014-Oct-13 21:15N 20°33' W 086°59'2 3.4
2014-Oct-13 20:33N 20°31' W 086°57'0 0.0
2014-Oct-13 19:33N 20°31' W 086°57'0 0.1
2014-Oct-13 13:34N 20°30' W 086°57'0 0.0
2014-Oct-13 12:33N 20°30' W 086°57'0 0.3
2014-Oct-13 11:34N 20°31' W 086°57'2 0.2
2014-Oct-13 00:17N 20°32' W 086°58'2 1.7
2014-Oct-12 23:15N 20°31' W 086°57'0 0.1
2014-Oct-12 22:34N 20°31' W 086°57'0 0.0
2014-Oct-12 21:31N 20°31' W 086°57'0 0.0
2014-Oct-12 20:31N 20°31' W 086°57'0 0.0
2014-Oct-12 19:33N 20°31' W 086°57'0 0.0
2014-Oct-12 18:33N 20°31' W 086°57'0 0.0
2014-Oct-12 17:33N 20°31' W 086°57'0 0.0
2014-Oct-12 16:32N 20°31' W 086°57'0 0.0
2014-Oct-12 15:33N 20°31' W 086°57'0 0.0
2014-Oct-12 14:33N 20°31' W 086°57'0 0.0
2014-Oct-12 13:33N 20°31' W 086°57'0 0.0
2014-Oct-12 12:33N 20°31' W 086°57'2 0.2
2014-Oct-12 02:18N 20°32' W 086°59'2 2.3
2014-Oct-12 01:23N 20°31' W 086°57'0 0.0
2014-Oct-12 00:33N 20°31' W 086°57'0 0.0
2014-Oct-11 23:33N 20°31' W 086°57'0 0.0
2014-Oct-11 22:32N 20°31' W 086°57'0 0.0
2014-Oct-11 21:33N 20°31' W 086°57'0 0.0
2014-Oct-11 20:33N 20°31' W 086°57'0 0.0
2014-Oct-11 19:32N 20°31' W 086°57'1 0.6
2014-Oct-11 17:16N 20°32' W 086°58'1 0.0
2014-Oct-09 14:33N 20°31' W 086°57'1 0.6
2014-Oct-09 12:15N 20°32' W 086°58'1 2.0
2014-Oct-09 11:33N 20°31' W 086°57'  

Dump ship's entire track history